Time;durP1;ratioP1;P1;durP2;ratioP2;P2;SDS_P1;SDS_P2;PMS_P1;PMS_P2;Temp;Humidity;BMP_temperature;BMP_pressure;BME280_temperature;BME280_humidity;BME280_pressure;Samples;Min_cycle;Max_cycle;Signal;HPM_P1;HPM_P2
2024/03/22 00:00:55;;;;;;;30.17;17.13;;;8.30;99.90;;;;;;5070387;28;20048;-44
2024/03/22 00:03:22;;;;;;;28.27;17.30;;;8.30;99.90;;;;;;5073684;28;20478;-43
2024/03/22 00:05:48;;;;;;;28.13;18.48;;;8.30;99.90;;;;;;5070893;28;20043;-43
2024/03/22 00:08:14;;;;;;;27.30;17.70;;;8.30;99.90;;;;;;5062960;28;20032;-43
2024/03/22 00:10:40;;;;;;;27.75;17.92;;;8.20;99.90;;;;;;5070431;28;20517;-46
2024/03/22 00:13:06;;;;;;;28.63;18.23;;;8.20;99.90;;;;;;5068591;28;20570;-49
2024/03/22 00:15:32;;;;;;;32.45;18.10;;;8.20;99.90;;;;;;5068614;28;20600;-48
2024/03/22 00:17:58;;;;;;;31.00;17.65;;;8.10;99.90;;;;;;5069974;28;20398;-46
2024/03/22 00:20:24;;;;;;;31.67;19.25;;;8.10;99.90;;;;;;5075863;28;20051;-50
2024/03/22 00:22:50;;;;;;;27.55;17.88;;;8.00;99.90;;;;;;5067708;28;20045;-43
2024/03/22 00:25:16;;;;;;;31.20;19.15;;;8.00;99.90;;;;;;5073960;28;20059;-43
2024/03/22 00:27:42;;;;;;;31.65;19.35;;;8.00;99.90;;;;;;5066653;28;20032;-45
2024/03/22 00:30:08;;;;;;;29.25;18.15;;;7.90;99.90;;;;;;5073535;28;20041;-40
2024/03/22 00:32:34;;;;;;;29.10;19.15;;;7.80;99.90;;;;;;5075637;28;20504;-41
2024/03/22 00:35:00;;;;;;;30.88;18.25;;;7.80;99.90;;;;;;5069612;28;20056;-45
2024/03/22 00:37:26;;;;;;;30.90;19.35;;;7.70;99.90;;;;;;5079300;28;20044;-41
2024/03/22 00:39:52;;;;;;;30.48;17.92;;;7.70;99.90;;;;;;5070450;28;20098;-44
2024/03/22 00:42:18;;;;;;;28.17;17.90;;;7.60;99.90;;;;;;5075617;28;20052;-50
2024/03/22 00:44:44;;;;;;;26.92;16.38;;;7.60;99.90;;;;;;5070885;28;20563;-47
2024/03/22 00:47:10;;;;;;;27.55;17.17;;;7.50;99.90;;;;;;5079328;28;20040;-47
2024/03/22 00:49:36;;;;;;;31.10;18.58;;;7.50;99.90;;;;;;5077124;28;20386;-42
2024/03/22 00:52:02;;;;;;;28.95;18.52;;;7.50;99.90;;;;;;5082999;28;20118;-41
2024/03/22 00:54:28;;;;;;;27.83;17.17;;;7.50;99.90;;;;;;5077681;28;20067;-48
2024/03/22 00:56:54;;;;;;;30.08;18.08;;;7.40;99.90;;;;;;5072877;28;20186;-43
2024/03/22 00:59:20;;;;;;;28.60;16.85;;;7.40;99.90;;;;;;5078759;28;20074;-45
2024/03/22 01:01:46;;;;;;;32.45;18.85;;;7.40;99.90;;;;;;5077532;28;20447;-43
2024/03/22 01:04:12;;;;;;;31.80;19.35;;;7.40;99.90;;;;;;5083844;28;20110;-47
2024/03/22 01:06:39;;;;;;;34.50;20.25;;;7.40;99.90;;;;;;5074191;28;20055;-44
2024/03/22 01:09:06;;;;;;;31.48;17.83;;;7.40;99.90;;;;;;5074798;28;20531;-47
2024/03/22 01:11:32;;;;;;;31.13;17.75;;;7.30;99.90;;;;;;5074022;28;20044;-49
2024/03/22 01:13:58;;;;;;;27.45;17.60;;;7.30;99.90;;;;;;5071421;28;20059;-50
2024/03/22 01:16:24;;;;;;;30.17;18.23;;;7.30;99.90;;;;;;5065519;28;20044;-46
2024/03/22 01:18:50;;;;;;;29.98;17.90;;;7.20;99.90;;;;;;5072051;28;20060;-44
2024/03/22 01:21:15;;;;;;;30.83;17.40;;;7.20;99.90;;;;;;5078842;28;20048;-46
2024/03/22 01:23:42;;;;;;;30.95;19.33;;;7.10;99.90;;;;;;5071628;28;20060;-46
2024/03/22 01:26:08;;;;;;;30.67;18.40;;;7.10;99.90;;;;;;5078028;28;20044;-47
2024/03/22 01:28:34;;;;;;;25.80;17.08;;;7.00;99.90;;;;;;5070293;28;20161;-43
2024/03/22 01:31:00;;;;;;;27.95;17.30;;;7.00;99.90;;;;;;5072599;28;20128;-43
2024/03/22 01:33:25;;;;;;;28.90;18.42;;;6.90;99.90;;;;;;5078316;28;20055;-44
2024/03/22 01:35:51;;;;;;;29.83;17.40;;;7.00;99.90;;;;;;5071418;28;20053;-42
2024/03/22 01:38:18;;;;;;;30.45;18.02;;;6.90;99.90;;;;;;5085011;28;20055;-46
2024/03/22 01:40:44;;;;;;;27.85;17.73;;;6.90;99.90;;;;;;5073869;28;20036;-43
2024/03/22 01:43:10;;;;;;;29.63;18.25;;;6.90;99.90;;;;;;5071706;28;20422;-47
2024/03/22 01:45:36;;;;;;;31.30;17.95;;;6.80;99.90;;;;;;5074732;28;20029;-44
2024/03/22 01:48:03;;;;;;;34.00;19.08;;;6.80;99.90;;;;;;5072564;28;20048;-43
2024/03/22 01:50:30;;;;;;;31.30;17.58;;;6.70;99.90;;;;;;5071730;28;20032;-47
2024/03/22 01:52:57;;;;;;;30.85;16.75;;;6.60;99.90;;;;;;5072111;28;20055;-47
2024/03/22 01:55:23;;;;;;;29.13;18.42;;;6.60;99.90;;;;;;5078303;28;20051;-44
2024/03/22 01:57:52;;;;;;;32.75;17.90;;;6.60;99.90;;;;;;5054814;28;20505;-42
2024/03/22 02:00:19;;;;;;;31.40;18.73;;;6.50;99.90;;;;;;5061620;28;20513;-46
2024/03/22 02:02:45;;;;;;;27.70;16.75;;;6.50;99.90;;;;;;5077497;28;20055;-47
2024/03/22 02:05:15;;;;;;;27.50;16.00;;;6.50;99.90;;;;;;5075491;28;20048;-49
2024/03/22 02:07:42;;;;;;;31.55;18.48;;;6.40;99.90;;;;;;5078960;28;20044;-50
2024/03/22 02:10:10;;;;;;;31.17;17.83;;;6.40;99.90;;;;;;5071784;28;20562;-45
2024/03/22 02:12:40;;;;;;;31.02;17.83;;;6.40;99.90;;;;;;5076793;28;20051;-45
2024/03/22 02:15:08;;;;;;;31.25;18.38;;;6.40;99.90;;;;;;5076930;28;20052;-44
2024/03/22 02:17:35;;;;;;;29.67;17.55;;;6.30;99.90;;;;;;5078254;28;20049;-45
2024/03/22 02:20:02;;;;;;;27.88;17.25;;;6.40;99.90;;;;;;5079873;28;20070;-45
2024/03/22 02:22:28;;;;;;;32.35;18.52;;;6.40;99.90;;;;;;5070426;28;20048;-45
2024/03/22 02:24:54;;;;;;;28.80;16.75;;;6.40;99.90;;;;;;5075402;28;20052;-47
2024/03/22 02:27:20;;;;;;;29.92;17.52;;;6.30;99.90;;;;;;5071240;28;20041;-42
2024/03/22 02:29:46;;;;;;;30.42;16.58;;;6.30;99.90;;;;;;5075292;28;20249;-44
2024/03/22 02:32:12;;;;;;;24.80;16.35;;;6.30;99.90;;;;;;5073449;28;20064;-47
2024/03/22 02:34:38;;;;;;;23.27;15.45;;;6.20;99.90;;;;;;5072796;28;20440;-45
2024/03/22 02:37:04;;;;;;;26.30;15.88;;;6.20;99.90;;;;;;5070541;28;20048;-42
2024/03/22 02:39:30;;;;;;;28.50;16.55;;;6.10;99.90;;;;;;5071189;28;20047;-43
2024/03/22 02:41:56;;;;;;;24.90;14.90;;;6.10;99.90;;;;;;5067871;28;20049;-48
2024/03/22 02:44:22;;;;;;;26.42;16.23;;;6.10;99.90;;;;;;5071133;28;20394;-48
2024/03/22 02:46:48;;;;;;;26.30;15.63;;;6.00;99.90;;;;;;5076219;28;20040;-46
2024/03/22 02:49:14;;;;;;;23.27;15.43;;;6.00;99.90;;;;;;5070941;28;20099;-46
2024/03/22 02:51:40;;;;;;;26.98;15.27;;;6.00;99.90;;;;;;5071297;28;20040;-47
2024/03/22 02:54:06;;;;;;;28.75;16.15;;;5.90;99.90;;;;;;5076551;28;20145;-45
2024/03/22 02:56:32;;;;;;;31.48;17.30;;;5.90;99.90;;;;;;5070502;28;20080;-44
2024/03/22 02:58:58;;;;;;;28.02;15.55;;;5.80;99.90;;;;;;5067676;28;20242;-46
2024/03/22 03:01:24;;;;;;;25.98;15.07;;;5.80;99.90;;;;;;5070985;28;20182;-47
2024/03/22 03:03:50;;;;;;;26.48;14.82;;;5.70;99.90;;;;;;5071684;28;20050;-42
2024/03/22 03:06:17;;;;;;;26.42;15.85;;;5.70;99.90;;;;;;5068588;28;20998;-45
2024/03/22 03:08:43;;;;;;;27.55;16.20;;;5.70;99.90;;;;;;5054744;28;20040;-46
2024/03/22 03:11:09;;;;;;;25.77;16.38;;;5.70;99.90;;;;;;5073365;28;20044;-49
2024/03/22 03:13:35;;;;;;;28.77;16.80;;;5.70;99.90;;;;;;5069469;28;20099;-48
2024/03/22 03:16:02;;;;;;;27.17;16.65;;;5.70;99.90;;;;;;5073827;28;20313;-48
2024/03/22 03:18:28;;;;;;;26.30;15.23;;;5.70;99.90;;;;;;5072516;28;20044;-44
2024/03/22 03:20:54;;;;;;;27.85;17.23;;;5.70;99.90;;;;;;5076273;28;20090;-44
2024/03/22 03:23:20;;;;;;;30.20;16.52;;;5.70;99.90;;;;;;5065989;28;20082;-49
2024/03/22 03:25:46;;;;;;;29.00;16.80;;;5.70;99.90;;;;;;5075444;28;20036;-48
2024/03/22 03:28:13;;;;;;;25.80;16.23;;;5.70;99.90;;;;;;5066414;28;20083;-44
2024/03/22 03:30:39;;;;;;;27.80;16.33;;;5.60;99.90;;;;;;5073920;28;20041;-42
2024/03/22 03:33:05;;;;;;;28.48;16.52;;;5.60;99.90;;;;;;5074924;28;20165;-44
2024/03/22 03:35:31;;;;;;;25.52;15.98;;;5.60;99.90;;;;;;5071860;28;20041;-50
2024/03/22 03:37:57;;;;;;;27.02;16.40;;;5.60;99.90;;;;;;5054423;28;20064;-41
2024/03/22 03:40:24;;;;;;;28.52;16.50;;;5.60;99.90;;;;;;5070198;28;20055;-45
2024/03/22 03:42:51;;;;;;;30.48;16.80;;;5.60;99.90;;;;;;5071874;28;20059;-44
2024/03/22 03:45:17;;;;;;;30.80;17.88;;;5.50;99.90;;;;;;5072510;28;20045;-44
2024/03/22 03:47:43;;;;;;;31.75;18.35;;;5.60;99.90;;;;;;5073562;28;20032;-48
2024/03/22 03:50:09;;;;;;;28.33;17.73;;;5.60;99.90;;;;;;5069747;28;20394;-41
2024/03/22 03:52:35;;;;;;;26.67;16.38;;;5.70;99.90;;;;;;5057066;28;20044;-48
2024/03/22 03:55:01;;;;;;;30.95;16.95;;;5.70;99.90;;;;;;5074662;28;20520;-46
2024/03/22 03:57:27;;;;;;;33.78;19.27;;;5.70;99.90;;;;;;5064401;28;20038;-43
2024/03/22 03:59:53;;;;;;;32.10;18.77;;;5.70;99.90;;;;;;5061943;28;20055;-44
2024/03/22 04:02:19;;;;;;;31.13;18.08;;;5.70;99.90;;;;;;5072293;28;20048;-45
2024/03/22 04:04:45;;;;;;;32.63;18.17;;;5.80;99.90;;;;;;5070977;28;20032;-45
2024/03/22 04:07:11;;;;;;;33.03;18.92;;;5.70;99.90;;;;;;5071000;28;20032;-46
2024/03/22 04:09:37;;;;;;;32.25;18.67;;;5.70;99.90;;;;;;5070079;28;20567;-43
2024/03/22 04:12:03;;;;;;;34.70;19.65;;;5.70;99.90;;;;;;5065247;28;20045;-51
2024/03/22 04:14:29;;;;;;;30.60;17.35;;;5.70;99.90;;;;;;5067902;28;20048;-48
2024/03/22 04:16:56;;;;;;;30.98;18.45;;;5.70;99.90;;;;;;5070639;28;20064;-45
2024/03/22 04:19:22;;;;;;;33.13;19.77;;;5.60;99.90;;;;;;5055758;28;20045;-41
2024/03/22 04:21:49;;;;;;;28.88;18.20;;;5.60;99.90;;;;;;5067267;28;20551;-44
2024/03/22 04:24:15;;;;;;;33.00;19.35;;;5.60;99.90;;;;;;5064267;28;20390;-42
2024/03/22 04:26:41;;;;;;;34.00;19.25;;;5.70;99.90;;;;;;5064164;28;20036;-44
2024/03/22 04:29:07;;;;;;;35.75;20.70;;;5.70;99.90;;;;;;5075305;28;20093;-48
2024/03/22 04:31:33;;;;;;;34.97;19.25;;;5.70;99.90;;;;;;5073182;28;20044;-47
2024/03/22 04:33:59;;;;;;;34.53;19.35;;;5.70;99.90;;;;;;5074545;28;20037;-44
2024/03/22 04:36:25;;;;;;;36.20;19.50;;;5.70;99.90;;;;;;5064705;28;20037;-42
2024/03/22 04:38:51;;;;;;;33.95;19.42;;;5.70;99.90;;;;;;5068774;28;20037;-47
2024/03/22 04:41:17;;;;;;;33.90;17.90;;;5.70;99.90;;;;;;5074832;28;20032;-43
2024/03/22 04:43:43;;;;;;;37.42;19.90;;;5.60;99.90;;;;;;5064971;28;20135;-49
2024/03/22 04:46:09;;;;;;;35.90;20.38;;;5.60;99.90;;;;;;5073057;28;20243;-45
2024/03/22 04:48:35;;;;;;;34.35;18.67;;;5.60;99.90;;;;;;5062662;28;20483;-46
2024/03/22 04:51:01;;;;;;;33.55;18.38;;;5.60;99.90;;;;;;5067696;28;20119;-44
2024/03/22 04:53:27;;;;;;;35.28;19.35;;;5.60;99.90;;;;;;5066886;28;20044;-46
2024/03/22 04:55:53;;;;;;;30.80;18.52;;;5.60;99.90;;;;;;5063551;28;20064;-46
2024/03/22 04:58:21;;;;;;;31.92;19.00;;;5.50;99.90;;;;;;5050972;28;20127;-49
2024/03/22 05:00:48;;;;;;;30.13;18.05;;;5.50;99.90;;;;;;5065335;28;20037;-42
2024/03/22 05:03:15;;;;;;;34.05;17.98;;;5.50;99.90;;;;;;5074768;28;20048;-41
2024/03/22 05:05:42;;;;;;;34.95;20.77;;;5.50;99.90;;;;;;5066924;28;20028;-47
2024/03/22 05:08:09;;;;;;;39.08;21.15;;;5.40;99.90;;;;;;5069216;28;20071;-44
2024/03/22 05:10:36;;;;;;;41.47;23.52;;;5.40;99.90;;;;;;5052632;28;20044;-47
2024/03/22 05:13:02;;;;;;;41.50;22.23;;;5.50;99.90;;;;;;5063796;28;20044;-47
2024/03/22 05:15:28;;;;;;;38.72;21.25;;;5.50;99.90;;;;;;5075223;28;20052;-45
2024/03/22 05:17:57;;;;;;;35.88;20.30;;;5.50;99.90;;;;;;5065880;28;20044;-47
2024/03/22 05:20:23;;;;;;;36.55;19.83;;;5.50;99.90;;;;;;5076494;28;20047;-46
2024/03/22 05:22:49;;;;;;;39.00;21.67;;;5.40;99.90;;;;;;5064228;28;20049;-50
2024/03/22 05:25:15;;;;;;;43.65;21.73;;;5.40;99.90;;;;;;5077530;28;20572;-45
2024/03/22 05:27:42;;;;;;;40.83;21.60;;;5.40;99.90;;;;;;5070702;28;20059;-51
2024/03/22 05:30:13;;;;;;;40.35;21.83;;;5.50;99.90;;;;;;5073768;28;20048;-48
2024/03/22 05:32:40;;;;;;;40.15;23.73;;;5.50;99.90;;;;;;5070519;28;20063;-43
2024/03/22 05:35:06;;;;;;;35.55;19.95;;;5.50;99.90;;;;;;5065025;28;20032;-43
2024/03/22 05:37:33;;;;;;;36.17;19.10;;;5.60;99.90;;;;;;5078971;28;20036;-44
2024/03/22 05:40:02;;;;;;;31.17;18.85;;;5.60;99.90;;;;;;5074246;28;20059;-47
2024/03/22 05:42:28;;;;;;;31.08;17.40;;;5.70;99.90;;;;;;5068952;28;20533;-43
2024/03/22 05:44:55;;;;;;;30.75;18.50;;;5.70;99.90;;;;;;5081246;28;20037;-47
2024/03/22 05:47:21;;;;;;;31.25;19.08;;;5.70;99.90;;;;;;5070099;28;20040;-46
2024/03/22 05:49:47;;;;;;;28.23;18.48;;;5.80;99.90;;;;;;5064058;28;20094;-47
2024/03/22 05:52:13;;;;;;;33.78;20.00;;;5.80;99.90;;;;;;5068603;28;20067;-44
2024/03/22 05:54:39;;;;;;;34.45;19.20;;;5.90;99.90;;;;;;5076284;28;20056;-44
2024/03/22 05:57:07;;;;;;;30.98;17.95;;;6.00;99.90;;;;;;5077035;28;20513;-45
2024/03/22 05:59:33;;;;;;;26.75;17.88;;;6.00;99.90;;;;;;5065274;28;20051;-45
2024/03/22 06:02:00;;;;;;;29.40;17.80;;;6.10;99.90;;;;;;5069159;28;20139;-46
2024/03/22 06:04:26;;;;;;;26.40;16.35;;;6.20;99.90;;;;;;5074247;28;20049;-47
2024/03/22 06:06:52;;;;;;;26.42;15.60;;;6.20;99.90;;;;;;5073189;28;20369;-49
2024/03/22 06:09:34;;;;;;;28.77;16.70;;;6.30;99.90;;;;;;5055844;28;20293;-43
2024/03/22 06:12:02;;;;;;;28.33;17.38;;;6.30;99.90;;;;;;5075569;28;20451;-49
2024/03/22 06:14:28;;;;;;;29.80;18.52;;;6.30;99.90;;;;;;5068663;28;20036;-43
2024/03/22 06:16:54;;;;;;;29.15;18.13;;;6.40;99.90;;;;;;5072722;28;20052;-47
2024/03/22 06:19:20;;;;;;;29.98;17.05;;;6.50;99.90;;;;;;5069478;28;20044;-42
2024/03/22 06:21:46;;;;;;;29.17;17.38;;;6.50;99.90;;;;;;5067402;28;20044;-43
2024/03/22 06:24:12;;;;;;;29.77;17.60;;;6.50;99.90;;;;;;5071098;28;20091;-43
2024/03/22 06:26:39;;;;;;;25.23;16.38;;;6.60;99.90;;;;;;5071893;28;20057;-43
2024/03/22 06:29:05;;;;;;;25.67;16.75;;;6.80;99.90;;;;;;5075605;28;20524;-44
2024/03/22 06:31:31;;;;;;;27.83;15.63;;;6.90;99.90;;;;;;5073661;28;20071;-46
2024/03/22 06:34:02;;;;;;;28.92;17.15;;;7.00;99.90;;;;;;5073595;28;20040;-46
2024/03/22 06:36:32;;;;;;;29.60;16.63;;;7.20;99.90;;;;;;5071682;28;20535;-42
2024/03/22 06:38:59;;;;;;;24.38;14.60;;;7.30;99.90;;;;;;5072334;28;20056;-41
2024/03/22 06:41:25;;;;;;;26.42;16.05;;;7.60;99.90;;;;;;5080878;28;20036;-42
2024/03/22 06:43:52;;;;;;;26.60;15.85;;;7.70;99.90;;;;;;5070921;28;20409;-46
2024/03/22 06:46:17;;;;;;;25.30;16.48;;;7.80;99.90;;;;;;5080587;28;20496;-46
2024/03/22 06:48:44;;;;;;;24.52;15.25;;;8.10;99.90;;;;;;5065704;28;20102;-49
2024/03/22 06:51:10;;;;;;;32.20;18.48;;;8.30;99.90;;;;;;5067699;28;20036;-44
2024/03/22 06:53:36;;;;;;;25.42;15.35;;;8.40;99.90;;;;;;5072547;28;20089;-44
2024/03/22 06:56:03;;;;;;;25.48;16.05;;;8.50;99.90;;;;;;5072747;28;20040;-45
2024/03/22 06:58:29;;;;;;;25.15;15.95;;;8.60;99.90;;;;;;5059612;28;20059;-45
2024/03/22 07:00:55;;;;;;;25.55;15.50;;;8.80;99.90;;;;;;5075630;28;20109;-43
2024/03/22 07:03:21;;;;;;;24.27;14.35;;;9.00;99.90;;;;;;5075784;28;20040;-44
2024/03/22 07:05:48;;;;;;;25.08;15.57;;;9.10;99.90;;;;;;5079886;28;20497;-43
2024/03/22 07:08:14;;;;;;;25.63;14.68;;;9.60;99.90;;;;;;5071799;28;20039;-43
2024/03/22 07:10:40;;;;;;;23.45;14.75;;;9.80;99.90;;;;;;5067388;28;20111;-43
2024/03/22 07:13:06;;;;;;;22.27;14.48;;;9.70;99.90;;;;;;5068685;28;20052;-42
2024/03/22 07:15:32;;;;;;;24.15;15.02;;;9.70;99.90;;;;;;5075735;28;20500;-40
2024/03/22 07:17:58;;;;;;;22.23;14.70;;;9.60;99.90;;;;;;5069920;28;20071;-45
2024/03/22 07:20:25;;;;;;;24.73;15.00;;;9.60;99.90;;;;;;5075131;28;20592;-43
2024/03/22 07:22:52;;;;;;;24.13;15.00;;;9.70;99.90;;;;;;5066899;28;20040;-50
2024/03/22 07:25:17;;;;;;;22.90;14.70;;;9.70;99.90;;;;;;5056089;28;20037;-44
2024/03/22 07:27:43;;;;;;;22.48;14.77;;;9.60;99.90;;;;;;5065915;28;20028;-46
2024/03/22 07:30:10;;;;;;;21.83;14.10;;;9.70;99.90;;;;;;5053623;28;20075;-43
2024/03/22 07:32:37;;;;;;;19.63;13.10;;;9.70;99.90;;;;;;5053895;28;20032;-43
2024/03/22 07:35:03;;;;;;;23.92;13.93;;;9.90;99.90;;;;;;5063761;28;20055;-47
2024/03/22 07:37:29;;;;;;;19.90;13.23;;;10.10;99.90;;;;;;5072436;28;20055;-46
2024/03/22 07:39:55;;;;;;;21.38;13.90;;;10.30;99.90;;;;;;5060270;28;20125;-46
2024/03/22 07:42:21;;;;;;;18.60;13.05;;;10.40;99.90;;;;;;5070860;28;20051;-47
2024/03/22 07:44:47;;;;;;;22.80;14.95;;;10.60;99.90;;;;;;5067839;28;20037;-47
2024/03/22 07:47:13;;;;;;;28.58;16.35;;;10.70;99.90;;;;;;5068847;28;20127;-45
2024/03/22 07:49:39;;;;;;;24.60;15.77;;;10.80;99.90;;;;;;5070422;28;20052;-48
2024/03/22 07:52:05;;;;;;;22.27;14.70;;;10.80;99.90;;;;;;5069460;28;20037;-49
2024/03/22 07:54:31;;;;;;;23.33;15.32;;;10.90;99.90;;;;;;5074261;28;20436;-47
2024/03/22 07:56:57;;;;;;;22.63;15.20;;;11.00;99.90;;;;;;5064808;28;20049;-49
2024/03/22 07:59:23;;;;;;;22.75;15.43;;;11.10;99.90;;;;;;5077737;28;20464;-42
2024/03/22 08:01:49;;;;;;;22.52;14.82;;;11.20;99.90;;;;;;5065369;28;20044;-45
2024/03/22 08:04:16;;;;;;;23.17;15.43;;;11.20;99.90;;;;;;5074972;28;20048;-46
2024/03/22 08:06:41;;;;;;;22.30;15.75;;;11.40;99.90;;;;;;5059220;28;20455;-45
2024/03/22 08:09:07;;;;;;;24.30;15.90;;;11.50;99.90;;;;;;5071371;28;20052;-42
2024/03/22 08:11:34;;;;;;;28.42;16.40;;;11.70;99.90;;;;;;5080359;28;20354;-45
2024/03/22 08:14:03;;;;;;;26.58;16.73;;;11.90;99.90;;;;;;5069086;28;20094;-47
2024/03/22 08:16:29;;;;;;;24.05;16.20;;;12.10;99.90;;;;;;5073538;28;20097;-45
2024/03/22 08:18:56;;;;;;;25.35;15.90;;;12.30;99.90;;;;;;5073222;28;20531;-45
2024/03/22 08:21:23;;;;;;;24.63;16.15;;;12.50;99.90;;;;;;5076027;28;20154;-50
2024/03/22 08:23:50;;;;;;;24.90;15.95;;;12.60;99.90;;;;;;5071668;28;20040;-46
2024/03/22 08:26:17;;;;;;;26.77;16.23;;;12.70;99.90;;;;;;5070979;28;20469;-49
2024/03/22 08:28:47;;;;;;;25.83;16.77;;;12.90;99.90;;;;;;5070072;28;20202;-44
2024/03/22 08:31:14;;;;;;;20.77;15.00;;;12.90;99.90;;;;;;5068355;28;20044;-48
2024/03/22 08:33:40;;;;;;;22.15;15.43;;;12.90;99.90;;;;;;5073610;28;20109;-44
2024/03/22 08:36:06;;;;;;;23.45;15.77;;;13.00;99.90;;;;;;5067085;28;20048;-41
2024/03/22 08:38:33;;;;;;;26.20;17.08;;;13.00;99.90;;;;;;5065764;28;20040;-44
2024/03/22 08:40:59;;;;;;;25.92;16.65;;;12.70;99.90;;;;;;5063232;28;20121;-46
2024/03/22 08:43:27;;;;;;;23.05;15.63;;;12.70;99.90;;;;;;5072431;28;20070;-50
2024/03/22 08:45:53;;;;;;;22.13;15.77;;;12.70;99.90;;;;;;5069933;28;20124;-44
2024/03/22 08:48:19;;;;;;;29.20;16.35;;;12.60;99.90;;;;;;5071646;28;20382;-45
2024/03/22 08:50:45;;;;;;;24.05;16.52;;;12.60;99.90;;;;;;5073169;28;20154;-49
2024/03/22 08:53:11;;;;;;;33.17;18.52;;;12.70;99.90;;;;;;5081841;28;20496;-50
2024/03/22 08:55:37;;;;;;;28.85;17.90;;;12.60;99.90;;;;;;5076204;28;20043;-49
2024/03/22 08:58:04;;;;;;;24.13;15.85;;;12.40;99.90;;;;;;5073656;28;20040;-49
2024/03/22 09:00:30;;;;;;;24.40;14.75;;;12.40;99.90;;;;;;5075653;28;20055;-49
2024/03/22 09:02:56;;;;;;;25.27;15.48;;;12.50;99.90;;;;;;5081966;28;20076;-50
2024/03/22 09:05:22;;;;;;;21.80;15.02;;;12.40;99.90;;;;;;5076332;28;20041;-49
2024/03/22 09:07:48;;;;;;;24.95;16.35;;;12.50;99.90;;;;;;5073349;28;20044;-48
2024/03/22 09:10:14;;;;;;;24.27;15.25;;;12.40;99.90;;;;;;5072464;28;20052;-46
2024/03/22 09:12:41;;;;;;;20.95;14.95;;;12.40;99.90;;;;;;5073056;28;20289;-48
2024/03/22 09:15:08;;;;;;;26.58;16.05;;;12.40;99.90;;;;;;5083052;28;20059;-42
2024/03/22 09:17:33;;;;;;;23.63;14.45;;;12.50;99.90;;;;;;5071197;28;20101;-46
2024/03/22 09:19:59;;;;;;;24.38;16.40;;;12.60;99.90;;;;;;5076693;28;20048;-46
2024/03/22 09:22:25;;;;;;;21.75;15.05;;;12.60;99.90;;;;;;5070852;28;20040;-42
2024/03/22 09:24:51;;;;;;;22.67;15.32;;;12.60;99.90;;;;;;5073983;28;20124;-45
2024/03/22 09:27:17;;;;;;;25.80;16.08;;;12.70;99.90;;;;;;5071339;28;20489;-41
2024/03/22 09:29:43;;;;;;;24.10;16.08;;;12.80;99.90;;;;;;5073619;28;20040;-43
2024/03/22 09:32:09;;;;;;;21.80;15.00;;;12.90;99.90;;;;;;5074747;28;20033;-44
2024/03/22 09:34:35;;;;;;;20.77;15.63;;;13.10;99.90;;;;;;5070723;28;20036;-43
2024/03/22 09:37:01;;;;;;;20.17;15.90;;;13.10;99.90;;;;;;5070421;28;20483;-48
2024/03/22 09:39:28;;;;;;;21.85;14.98;;;13.20;99.90;;;;;;5075250;28;20036;-46
2024/03/22 09:41:57;;;;;;;24.63;16.75;;;13.30;99.90;;;;;;5077461;28;20048;-43
2024/03/22 09:44:26;;;;;;;25.00;15.50;;;13.50;99.90;;;;;;5070510;28;20055;-48
2024/03/22 09:46:56;;;;;;;20.60;14.93;;;13.70;99.90;;;;;;5071425;28;20051;-45
2024/03/22 09:49:23;;;;;;;22.98;15.30;;;13.80;99.90;;;;;;5073905;28;20473;-48
2024/03/22 09:51:51;;;;;;;22.67;16.45;;;14.00;99.90;;;;;;5070758;28;20045;-44
2024/03/22 09:54:17;;;;;;;24.52;15.52;;;14.40;99.90;;;;;;5072439;28;20062;-51
2024/03/22 09:56:47;;;;;;;19.88;15.13;;;14.60;99.90;;;;;;5063467;28;20066;-48
2024/03/22 09:59:13;;;;;;;22.00;15.52;;;14.90;99.90;;;;;;5075100;28;20036;-45
2024/03/22 10:01:41;;;;;;;18.58;14.65;;;15.30;99.90;;;;;;5069925;28;20063;-46
2024/03/22 10:04:09;;;;;;;20.33;14.25;;;15.40;99.90;;;;;;5082848;28;20508;-43
2024/03/22 10:06:35;;;;;;;20.30;14.85;;;15.90;99.90;;;;;;5071045;28;20032;-43
2024/03/22 10:09:01;;;;;;;20.30;14.75;;;16.20;99.90;;;;;;5071744;28;20056;-43
2024/03/22 10:11:28;;;;;;;19.80;14.07;;;16.50;99.90;;;;;;5071101;28;20039;-46
2024/03/22 10:13:55;;;;;;;20.92;14.80;;;16.80;99.90;;;;;;5073845;28;20051;-45
2024/03/22 10:16:22;;;;;;;19.08;15.43;;;17.30;99.90;;;;;;5075376;28;20328;-47
2024/03/22 10:18:48;;;;;;;22.45;15.30;;;17.50;99.90;;;;;;5074215;28;20044;-47
2024/03/22 10:21:18;;;;;;;19.23;14.90;;;17.60;99.90;;;;;;5072528;28;20040;-45
2024/03/22 10:23:46;;;;;;;22.08;14.27;;;17.50;99.90;;;;;;5072335;28;20040;-44
2024/03/22 10:26:12;;;;;;;18.77;14.73;;;17.80;99.90;;;;;;5081998;28;20524;-43
2024/03/22 10:28:45;;;;;;;19.95;15.25;;;18.00;99.90;;;;;;5076058;28;20044;-45
2024/03/22 10:31:12;;;;;;;22.13;16.60;;;17.90;99.90;;;;;;5067966;28;20037;-46
2024/03/22 10:33:41;;;;;;;20.15;14.73;;;18.00;99.90;;;;;;5078174;28;20035;-48
2024/03/22 10:36:08;;;;;;;19.15;14.43;;;18.30;99.90;;;;;;5062520;28;21135;-42
2024/03/22 10:38:38;;;;;;;15.98;12.50;;;18.30;99.90;;;;;;5075130;28;20089;-40
2024/03/22 10:41:04;;;;;;;15.85;12.65;;;18.20;99.90;;;;;;5070001;28;20067;-44
2024/03/22 10:43:31;;;;;;;18.85;13.90;;;18.10;99.90;;;;;;5068327;28;20044;-48
2024/03/22 10:46:03;;;;;;;16.30;12.40;;;18.50;99.90;;;;;;5069477;28;20082;-47
2024/03/22 10:48:31;;;;;;;14.82;12.43;;;18.60;99.90;;;;;;5075430;28;20032;-42
2024/03/22 10:51:02;;;;;;;13.13;11.45;;;19.10;99.90;;;;;;5073523;28;20531;-51
2024/03/22 10:53:32;;;;;;;14.38;12.57;;;19.10;99.90;;;;;;5074836;28;20492;-43
2024/03/22 10:56:01;;;;;;;14.10;12.13;;;19.30;99.90;;;;;;5071634;28;20433;-45
2024/03/22 10:58:27;;;;;;;14.82;12.43;;;19.20;99.90;;;;;;5073275;28;20040;-45
2024/03/22 11:00:54;;;;;;;16.02;12.85;;;19.10;99.90;;;;;;5067145;28;20043;-44
2024/03/22 11:03:23;;;;;;;14.27;11.65;;;19.30;99.90;;;;;;5077340;28;20127;-45
2024/03/22 11:05:50;;;;;;;13.75;10.45;;;19.50;99.90;;;;;;5068223;28;20043;-42
2024/03/22 11:08:27;;;;;;;12.50;10.75;;;19.20;99.90;;;;;;5072914;28;20036;-43
2024/03/22 11:10:54;;;;;;;13.35;10.82;;;19.30;99.90;;;;;;5054053;28;20301;-49
2024/03/22 11:13:21;;;;;;;12.65;10.38;;;19.00;99.90;;;;;;5074046;28;20047;-43
2024/03/22 11:15:48;;;;;;;10.35;9.00;;;19.00;99.90;;;;;;5078661;28;20036;-40
2024/03/22 11:18:15;;;;;;;11.13;9.90;;;18.80;99.90;;;;;;5070745;28;20055;-42
2024/03/22 11:20:42;;;;;;;10.45;9.23;;;18.50;99.90;;;;;;5070679;28;20089;-44
2024/03/22 11:23:09;;;;;;;12.02;10.18;;;18.70;99.90;;;;;;5070523;28;20497;-49
2024/03/22 11:25:35;;;;;;;11.75;10.15;;;18.80;99.90;;;;;;5078282;28;20032;-43
2024/03/22 11:28:01;;;;;;;10.80;9.68;;;18.90;99.90;;;;;;5072817;28;20103;-46
2024/03/22 11:30:32;;;;;;;11.10;9.73;;;19.00;99.90;;;;;;5070799;28;20045;-41
2024/03/22 11:33:02;;;;;;;13.05;9.68;;;18.90;99.90;;;;;;5076199;28;20086;-47
2024/03/22 11:35:29;;;;;;;12.00;9.05;;;19.10;99.90;;;;;;5073915;28;20113;-42
2024/03/22 11:37:56;;;;;;;10.63;8.65;;;19.10;99.90;;;;;;5070254;28;20044;-45
2024/03/22 11:40:23;;;;;;;9.68;8.68;;;19.20;99.90;;;;;;5076971;28;20079;-46
2024/03/22 11:42:52;;;;;;;11.55;9.40;;;19.60;99.90;;;;;;5073083;28;20037;-44
2024/03/22 11:45:19;;;;;;;10.88;9.43;;;20.00;99.90;;;;;;5070044;28;20421;-49
2024/03/22 11:47:46;;;;;;;10.73;9.57;;;20.10;99.90;;;;;;5070625;28;20524;-46
2024/03/22 11:50:15;;;;;;;11.15;9.52;;;19.70;99.90;;;;;;5073934;28;20520;-47
2024/03/22 11:52:42;;;;;;;11.23;9.68;;;19.40;99.90;;;;;;5069877;28;20052;-46
2024/03/22 11:55:10;;;;;;;10.80;8.95;;;19.90;99.90;;;;;;5072177;28;20056;-42
2024/03/22 11:57:37;;;;;;;10.82;9.07;;;20.10;99.90;;;;;;5068544;28;20428;-43
2024/03/22 12:00:08;;;;;;;10.15;8.63;;;19.90;99.90;;;;;;5070171;28;20060;-48
2024/03/22 12:02:41;;;;;;;10.23;9.05;;;20.10;99.30;;;;;;5070800;28;20058;-42
2024/03/22 12:05:09;;;;;;;10.38;8.35;;;20.30;99.30;;;;;;5064083;28;20045;-43
2024/03/22 12:07:35;;;;;;;9.18;8.27;;;20.60;99.10;;;;;;5077661;28;20028;-47
2024/03/22 12:10:01;;;;;;;11.90;8.77;;;20.70;98.60;;;;;;5059666;28;20386;-48
2024/03/22 12:12:27;;;;;;;10.02;9.02;;;21.10;97.30;;;;;;5065349;28;20071;-47
2024/03/22 12:14:53;;;;;;;10.43;9.02;;;21.50;97.10;;;;;;5068146;28;20504;-48
2024/03/22 12:17:19;;;;;;;11.00;9.02;;;21.40;97.40;;;;;;5048562;28;20129;-49
2024/03/22 12:19:45;;;;;;;11.07;9.88;;;21.90;97.60;;;;;;5074485;28;20052;-45
2024/03/22 12:22:11;;;;;;;10.25;8.98;;;22.30;96.00;;;;;;5058238;28;20052;-46
2024/03/22 12:24:37;;;;;;;11.15;9.77;;;22.10;95.60;;;;;;5072590;28;20055;-51
2024/03/22 12:27:03;;;;;;;11.95;10.10;;;21.60;96.20;;;;;;5065169;28;20237;-46
2024/03/22 12:29:33;;;;;;;11.73;10.50;;;21.40;96.60;;;;;;5071040;28;20040;-49